This is the latest recevied weather packets stored in our database for station/object JM1YTT-13. If no packets are shown the sender has not sent any weather packets the latest 10 day(s).
| Time | Temp. | Humidity | Pressure | Rain* | Wind** | Luminosity | Snow |
|---|---|---|---|---|---|---|---|
| 1777569190 | 10.56° C | 94% | 1014 hPa | 0 mm | - | - | - |
| 1777545790 | 13.33° C | 73% | 1019 hPa | 0 mm | - | - | - |
| 1777536790 | 13.89° C | 71% | 1018.6 hPa | 0 mm | - | - | - |
| 1777529590 | 15° C | 62% | 1019.6 hPa | 0 mm | - | - | - |
| 1777527790 | 15.56° C | 59% | 1019.6 hPa | 0 mm | - | - | - |
| 1777525990 | 15.56° C | 60% | 1019.7 hPa | 0 mm | - | - | - |
| 1777524190 | 15.56° C | 57% | 1020 hPa | 0 mm | - | - | - |
| 1777522390 | 16.11° C | 61% | 1020.2 hPa | 0 mm | - | - | - |
| 1777520590 | 16.11° C | 61% | 1020.3 hPa | 0 mm | - | - | - |
| 1777518790 | 15.56° C | 62% | 1020.7 hPa | 0 mm | - | - | - |
| 1777516990 | 16.11° C | 64% | 1021 hPa | 0 mm | - | - | - |
| 1777515190 | 15.56° C | 63% | 1020.8 hPa | 0 mm | - | - | - |
| 1777511590 | 15.56° C | 65% | 1020.8 hPa | 0 mm | - | - | - |
| 1777502590 | 11.67° C | 92% | 1018.2 hPa | 0 mm | - | - | - |
| 1777500790 | 11.67° C | 92% | 1018.2 hPa | 0 mm | - | - | - |
| 1777498990 | 11.67° C | 92% | 1018.2 hPa | 0 mm | - | - | - |
| 1777497190 | 11.67° C | 92% | 1018.2 hPa | 0 mm | - | - | - |
| 1777495390 | 11.67° C | 92% | 1018.2 hPa | 0 mm | - | - | - |
| 1777493590 | 11.67° C | 92% | 1018.2 hPa | 0 mm | - | - | - |
| 1777489990 | 12.22° C | 92% | 1018.2 hPa | 0 mm | - | - | - |
| 1777486390 | 12.22° C | 92% | 1017.8 hPa | 0 mm | - | - | - |
| 1777482790 | 12.22° C | 91% | 1017.2 hPa | 0 mm | - | - | - |
| 1777475590 | 12.78° C | 93% | 1016.9 hPa | 0 mm | - | - | - |
| 1777471990 | 12.78° C | 94% | 1016.5 hPa | 0 mm | - | - | - |
| 1777468390 | 12.78° C | 94% | 1015.7 hPa | 0 mm | - | - | - |
* Rain latest hour (hover to see other rain measurements)
** Current wind speed in m/s (hover to see current wind gust speed)